Time;durP1;ratioP1;P1;durP2;ratioP2;P2;SDS_P1;SDS_P2;PMS_P1;PMS_P2;Temp;Humidity;BMP_temperature;BMP_pressure;BME280_temperature;BME280_humidity;BME280_pressure;Samples;Min_cycle;Max_cycle;Signal;HPM_P1;HPM_P2
2023/07/22 00:09:05;;;;;;;6.50;5.00;;;;;;;16.49;77.12;98881.55;435821;1253;139233;-75
2023/07/22 00:19:11;;;;;;;5.70;5.10;;;;;;;16.37;77.81;98871.84;435983;1256;140476;-73
2023/07/22 00:29:17;;;;;;;6.50;5.90;;;;;;;16.17;78.40;98876.83;436605;1253;139247;-74
2023/07/22 00:39:22;;;;;;;9.40;5.80;;;;;;;15.82;78.99;98871.16;435936;1256;141198;-74
2023/07/22 00:49:30;;;;;;;5.10;4.60;;;;;;;15.59;79.53;98870.70;435852;1256;140815;-74
2023/07/22 00:59:37;;;;;;;6.80;5.90;;;;;;;15.50;80.24;98867.16;435935;1253;139652;-74
2023/07/22 01:09:44;;;;;;;11.20;7.30;;;;;;;15.50;80.80;98863.78;435476;1253;140004;-74
2023/07/22 01:19:51;;;;;;;6.00;5.50;;;;;;;15.46;81.31;98854.52;435942;1254;139887;-74
2023/07/22 01:29:56;;;;;;;7.40;6.60;;;;;;;15.39;81.55;98848.92;435711;1256;139243;-74
2023/07/22 01:40:11;;;;;;;6.30;5.70;;;;;;;15.36;82.34;98841.70;435733;1253;139105;-73
2023/07/22 01:50:19;;;;;;;6.70;6.10;;;;;;;15.48;83.12;98841.91;435829;1256;139068;-74
2023/07/22 02:00:26;;;;;;;5.70;5.30;;;;;;;15.58;83.33;98836.04;436055;1254;140778;-72
2023/07/22 02:10:32;;;;;;;6.80;6.10;;;;;;;15.60;83.51;98842.16;436457;1256;140362;-73
2023/07/22 02:20:38;;;;;;;7.20;4.60;;;;;;;15.61;83.72;98847.02;436372;1256;140306;-74
2023/07/22 02:30:45;;;;;;;5.90;5.40;;;;;;;15.64;84.31;98855.23;437074;1254;140055;-73
2023/07/22 02:40:51;;;;;;;6.40;5.90;;;;;;;15.57;83.97;98869.29;437209;1254;139648;-74
2023/07/22 02:51:02;;;;;;;5.30;4.70;;;;;;;15.45;83.96;98877.67;436234;1253;139923;-74
2023/07/22 03:01:10;;;;;;;5.70;5.20;;;;;;;15.30;83.84;98883.71;436404;1256;139804;-73
2023/07/22 03:11:16;;;;;;;5.30;4.80;;;;;;;15.20;83.72;98883.41;436155;1256;139572;-73
2023/07/22 03:21:23;;;;;;;4.90;4.50;;;;;;;15.12;83.86;98881.52;435967;1253;139940;-72
2023/07/22 03:31:28;;;;;;;5.10;4.20;;;;;;;15.41;83.76;98898.34;436082;1257;139287;-73
2023/07/22 03:41:34;;;;;;;4.70;3.40;;;;;;;15.75;82.69;98913.11;435799;1254;139536;-73
2023/07/22 03:51:41;;;;;;;4.50;3.80;;;;;;;16.05;81.49;98919.05;435615;1256;141288;-72
2023/07/22 04:01:47;;;;;;;2.90;2.70;;;;;;;16.30;80.59;98914.22;435614;1256;140304;-72
2023/07/22 04:11:54;;;;;;;5.30;3.50;;;;;;;16.76;79.70;98924.71;436112;1256;140734;-73
2023/07/22 04:22:03;;;;;;;3.70;3.20;;;;;;;16.96;78.06;98927.95;435872;1256;139676;-74
2023/07/22 04:32:10;;;;;;;2.50;2.30;;;;;;;17.12;76.95;98920.58;436004;1255;139490;-72
2023/07/22 04:42:17;;;;;;;2.00;1.90;;;;;;;17.60;75.59;98931.42;436297;1254;140675;-75
2023/07/22 04:52:26;;;;;;;2.90;2.70;;;;;;;18.04;74.39;98955.37;436517;1256;141294;-73
2023/07/22 05:02:33;;;;;;;3.30;2.80;;;;;;;20.18;73.23;98959.75;435332;1259;140597;-72
2023/07/22 05:12:39;;;;;;;2.90;2.30;;;;;;;23.63;65.53;98963.89;435631;1256;139094;-73
2023/07/22 05:22:45;;;;;;;4.40;2.60;;;;;;;22.91;61.44;98973.23;435189;1256;139089;-74
2023/07/22 05:32:54;;;;;;;2.10;2.00;;;;;;;27.33;59.28;98970.60;435446;1256;140490;-72
2023/07/22 05:43:00;;;;;;;2.30;2.10;;;;;;;34.67;48.36;98967.26;435475;1256;139185;-74
2023/07/22 05:53:05;;;;;;;2.00;1.80;;;;;;;39.74;38.43;98963.20;435599;1256;138460;-74
2023/07/22 06:03:11;;;;;;;1.40;1.30;;;;;;;41.87;32.68;98964.80;435527;1256;139869;-74
2023/07/22 06:13:17;;;;;;;3.20;1.10;;;;;;;44.31;28.84;98967.66;435421;1257;139956;-72
2023/07/22 06:23:23;;;;;;;2.20;1.30;;;;;;;47.57;24.84;98969.75;435573;1258;139210;-73
2023/07/22 06:33:29;;;;;;;1.60;0.90;;;;;;;47.69;22.08;98977.49;435454;1256;138918;-74
2023/07/22 06:43:35;;;;;;;1.00;0.80;;;;;;;48.87;20.47;98980.62;436034;1257;138396;-73
2023/07/22 06:53:41;;;;;;;1.50;1.20;;;;;;;50.88;18.47;98991.02;435767;1257;139383;-73
2023/07/22 07:03:47;;;;;;;1.60;1.50;;;;;;;52.60;17.19;98995.40;435445;1257;139529;-72
2023/07/22 07:13:54;;;;;;;1.60;1.30;;;;;;;53.60;15.99;99002.16;435955;1256;138941;-72
2023/07/22 07:24:01;;;;;;;1.70;1.60;;;;;;;52.75;15.35;99001.14;435907;1255;138352;-73
2023/07/22 07:34:07;;;;;;;1.90;1.80;;;;;;;51.75;14.94;99014.02;435343;1257;150019;-71
2023/07/22 07:44:12;;;;;;;3.70;1.70;;;;;;;52.93;14.65;99020.14;435619;1256;138794;-72
2023/07/22 07:54:21;;;;;;;2.10;1.50;;;;;;;52.13;14.00;99020.61;436070;1256;139099;-74
2023/07/22 08:04:27;;;;;;;2.00;1.10;;;;;;;48.43;14.92;99026.11;435539;1257;138312;-72
2023/07/22 08:14:33;;;;;;;1.60;0.90;;;;;;;41.61;17.66;99033.88;435512;1257;138996;-73
2023/07/22 08:24:39;;;;;;;1.40;1.30;;;;;;;36.13;21.17;99048.90;435447;1257;140115;-73
2023/07/22 08:34:45;;;;;;;1.40;1.10;;;;;;;33.35;24.02;99062.59;435397;1255;140055;-73
2023/07/22 08:44:50;;;;;;;;;;;;;;;32.07;25.67;99068.46;435660;1254;140426;-73
2023/07/22 08:55:00;;;;;;;1.60;1.30;;;;;;;30.74;26.82;99071.66;435338;1257;125647;-74
2023/07/22 09:05:09;;;;;;;2.70;0.90;;;;;;;29.72;28.20;99075.66;435568;1254;138480;-74
2023/07/22 09:15:17;;;;;;;1.90;1.00;;;;;;;29.06;28.82;99088.46;435702;1253;139755;-73
2023/07/22 09:25:24;;;;;;;2.10;1.40;;;;;;;28.03;29.73;99099.92;435533;1257;138686;-73
2023/07/22 09:35:31;;;;;;;0.70;0.70;;;;;;;27.06;30.97;99107.86;436021;1257;138585;-73
2023/07/22 09:45:38;;;;;;;1.20;1.10;;;;;;;27.42;31.11;99108.61;435706;1257;139073;-72
2023/07/22 09:55:44;;;;;;;2.70;0.80;;;;;;;27.16;31.32;99118.89;436091;1256;138735;-73
2023/07/22 10:05:51;;;;;;;0.90;0.70;;;;;;;26.99;31.13;99124.42;435999;1254;138638;-73
2023/07/22 10:15:57;;;;;;;0.90;0.80;;;;;;;26.51;31.23;99124.15;435667;1257;140495;-73
2023/07/22 10:26:04;;;;;;;3.00;1.00;;;;;;;25.84;31.62;99130.01;435826;1254;139167;-74
2023/07/22 10:36:14;;;;;;;1.90;1.00;;;;;;;26.08;32.21;99129.41;436007;1254;138488;-73
2023/07/22 10:46:31;;;;;;;2.30;0.90;;;;;;;26.29;32.11;99132.27;435478;1254;138632;-75
2023/07/22 10:56:37;;;;;;;1.40;1.20;;;;;;;26.49;32.15;99136.25;435653;1254;141377;-72
2023/07/22 11:06:55;;;;;;;2.40;1.30;;;;;;;26.02;32.44;99145.52;435928;1255;140613;-73
2023/07/22 11:17:04;;;;;;;1.90;1.30;;;;;;;24.97;33.74;99156.71;435984;1256;138881;-73
2023/07/22 11:27:10;;;;;;;3.10;1.70;;;;;;;24.80;34.63;99153.95;435718;1254;138613;-73
2023/07/22 11:37:16;;;;;;;3.70;1.90;;;;;;;24.84;34.73;99155.36;436051;1254;138414;-73
2023/07/22 11:47:31;;;;;;;2.00;1.20;;;;;;;25.06;34.45;99160.55;436295;1256;140261;-72
2023/07/22 11:57:37;;;;;;;2.20;1.40;;;;;;;25.35;34.65;99160.41;435935;1256;138471;-74
2023/07/22 12:07:43;;;;;;;1.10;1.00;;;;;;;25.37;34.51;99153.80;436328;1257;138614;-72
2023/07/22 12:17:52;;;;;;;1.00;0.90;;;;;;;25.11;34.00;99158.39;436324;1256;138422;-74
2023/07/22 12:27:59;;;;;;;1.90;1.10;;;;;;;24.82;34.01;99160.69;435839;1254;139327;-74
2023/07/22 12:38:06;;;;;;;2.30;1.20;;;;;;;25.58;33.38;99168.02;435986;1253;139112;-73
2023/07/22 12:48:11;;;;;;;4.90;1.50;;;;;;;25.62;32.93;99170.20;436124;1253;138396;-73
2023/07/22 12:58:17;;;;;;;1.70;1.30;;;;;;;25.57;32.83;99184.05;436047;1256;139843;-74
2023/07/22 13:08:23;;;;;;;1.30;1.10;;;;;;;25.76;32.84;99181.15;436012;1256;139543;-74
2023/07/22 13:18:32;;;;;;;1.70;1.30;;;;;;;25.36;33.07;99192.29;436241;1253;139653;-72
2023/07/22 13:28:38;;;;;;;4.00;2.00;;;;;;;25.02;33.57;99192.63;436046;1256;138490;-73
2023/07/22 13:38:44;;;;;;;3.30;1.50;;;;;;;24.77;33.86;99192.96;435943;1256;138698;-73
2023/07/22 13:48:50;;;;;;;2.40;1.50;;;;;;;24.67;33.71;99182.81;436119;1254;140985;-74
2023/07/22 13:59:00;;;;;;;3.40;1.30;;;;;;;24.16;34.15;99180.59;435955;1256;139557;-72
2023/07/22 14:09:06;;;;;;;1.80;1.20;;;;;;;23.98;34.24;99174.38;436228;1253;138659;-74
2023/07/22 14:19:12;;;;;;;3.70;1.80;;;;;;;23.92;34.19;99173.59;435697;1253;138375;-72
2023/07/22 14:29:18;;;;;;;4.60;1.80;;;;;;;23.88;34.71;99173.48;435531;1252;140820;-74
2023/07/22 14:39:24;;;;;;;5.20;1.70;;;;;;;23.85;34.01;99163.98;435403;1253;139371;-74
2023/07/22 14:49:30;;;;;;;4.80;1.90;;;;;;;23.67;34.03;99155.67;435359;1256;139038;-73
2023/07/22 14:59:39;;;;;;;1.30;1.20;;;;;;;23.56;33.97;99155.44;435453;1253;138379;-73
2023/07/22 15:09:44;;;;;;;2.60;1.80;;;;;;;23.57;33.97;99148.55;435540;1253;138940;-72
2023/07/22 15:19:52;;;;;;;3.00;1.60;;;;;;;23.61;33.51;99144.27;435496;1256;139045;-73
2023/07/22 15:29:58;;;;;;;2.20;1.40;;;;;;;23.48;33.24;99146.38;435650;1254;139029;-75
2023/07/22 15:40:04;;;;;;;2.20;1.70;;;;;;;23.24;32.91;99149.55;435541;1253;138542;-74
2023/07/22 15:50:12;;;;;;;2.00;1.60;;;;;;;23.02;32.88;99152.01;435235;1253;138370;-75
2023/07/22 16:00:20;;;;;;;1.40;1.30;;;;;;;22.80;33.41;99149.42;437963;1256;140992;-74
2023/07/22 16:10:26;;;;;;;1.30;1.20;;;;;;;22.67;33.05;99146.36;435779;1253;139888;-72
2023/07/22 16:20:32;;;;;;;1.80;1.30;;;;;;;22.37;33.48;99155.00;435461;1256;139772;-73
2023/07/22 16:30:38;;;;;;;1.50;1.40;;;;;;;22.17;33.76;99168.34;436016;1254;138947;-73
2023/07/22 16:40:43;;;;;;;2.10;2.00;;;;;;;22.03;33.91;99166.91;435879;1257;139900;-73
2023/07/22 16:50:49;;;;;;;2.60;2.10;;;;;;;21.91;34.23;99179.94;435998;1253;138624;-74
2023/07/22 17:00:56;;;;;;;4.00;2.40;;;;;;;22.00;34.57;99184.60;436121;1253;139755;-74
2023/07/22 17:11:04;;;;;;;4.60;1.90;;;;;;;21.92;34.92;99189.85;436117;1253;139057;-74
2023/07/22 17:21:11;;;;;;;2.90;1.70;;;;;;;21.72;35.04;99194.31;436140;1252;139103;-73
2023/07/22 17:31:17;;;;;;;3.20;1.90;;;;;;;21.41;35.36;99201.00;435555;1253;140642;-73
2023/07/22 17:41:23;;;;;;;2.80;1.60;;;;;;;21.28;35.46;99203.17;435614;1253;138424;-73
2023/07/22 17:51:28;;;;;;;4.00;2.90;;;;;;;21.02;35.70;99202.84;435485;1253;139058;-73
2023/07/22 18:01:34;;;;;;;5.50;4.90;;;;;;;20.73;35.98;99214.08;435509;1253;138734;-74
2023/07/22 18:11:40;;;;;;;3.60;2.80;;;;;;;20.36;36.70;99215.96;435816;1255;138733;-74
2023/07/22 18:21:46;;;;;;;4.80;3.90;;;;;;;19.86;37.90;99220.96;435559;1253;138863;-74
2023/07/22 18:31:54;;;;;;;1.90;1.80;;;;;;;19.37;38.80;99229.32;435450;1256;139136;-73
2023/07/22 18:41:59;;;;;;;3.70;1.80;;;;;;;18.93;39.86;99235.89;435690;1253;138319;-74
2023/07/22 18:52:08;;;;;;;5.90;5.00;;;;;;;18.45;41.28;99246.23;435603;1253;138693;-73
2023/07/22 19:02:14;;;;;;;4.60;2.40;;;;;;;17.97;42.40;99260.66;435519;1253;139346;-73
2023/07/22 19:12:20;;;;;;;3.30;2.50;;;;;;;17.52;43.56;99270.56;435848;1253;139026;-74
2023/07/22 19:22:26;;;;;;;5.00;2.40;;;;;;;17.10;44.59;99284.15;435321;1256;139477;-73
2023/07/22 19:32:33;;;;;;;7.80;7.00;;;;;;;16.71;45.88;99293.61;436560;1256;140732;-74
2023/07/22 19:42:39;;;;;;;8.40;3.50;;;;;;;16.40;47.09;99292.78;435608;1253;150770;-74
2023/07/22 19:52:45;;;;;;;17.00;9.00;;;;;;;16.11;48.56;99299.36;435997;1253;139942;-73
2023/07/22 20:02:51;;;;;;;13.00;9.60;;;;;;;15.78;49.67;99295.88;435642;1253;139326;-74
2023/07/22 20:12:59;;;;;;;20.70;13.30;;;;;;;15.46;50.97;99305.45;435671;1256;139469;-74
2023/07/22 20:23:05;;;;;;;27.40;15.30;;;;;;;15.21;52.08;99308.86;436301;1254;139749;-74
2023/07/22 20:33:11;;;;;;;12.90;11.00;;;;;;;14.94;53.19;99320.92;435955;1253;138985;-73
2023/07/22 20:43:16;;;;;;;9.90;6.70;;;;;;;14.68;54.12;99328.57;435555;1253;140902;-73
2023/07/22 20:53:22;;;;;;;14.40;10.20;;;;;;;14.41;55.11;99334.66;435692;1254;138352;-74
2023/07/22 21:03:28;;;;;;;10.90;7.30;;;;;;;14.17;56.35;99344.95;435702;1253;139883;-75
2023/07/22 21:13:34;;;;;;;13.60;8.50;;;;;;;13.95;57.20;99346.93;435501;1256;140208;-73
2023/07/22 21:23:40;;;;;;;14.90;11.40;;;;;;;13.70;58.11;99345.56;436136;1256;140638;-73
2023/07/22 21:33:47;;;;;;;16.00;11.60;;;;;;;13.50;59.09;99347.67;435526;1253;139831;-74
2023/07/22 21:43:53;;;;;;;18.00;13.40;;;;;;;13.34;59.96;99350.39;436001;1256;140498;-74
2023/07/22 21:53:59;;;;;;;17.80;14.00;;;;;;;13.15;60.71;99351.80;436470;1253;138590;-74
2023/07/22 22:04:06;;;;;;;22.80;13.80;;;;;;;13.02;61.25;99355.30;435848;1256;140161;-72
2023/07/22 22:14:14;;;;;;;20.50;11.70;;;;;;;12.82;61.87;99360.69;435879;1254;140003;-74
2023/07/22 22:24:22;;;;;;;17.90;15.10;;;;;;;12.66;62.48;99363.99;436608;1253;139812;-73
2023/07/22 22:34:28;;;;;;;14.40;12.00;;;;;;;12.50;62.91;99372.94;435595;1256;140513;-73
2023/07/22 22:44:35;;;;;;;12.90;11.30;;;;;;;12.38;63.40;99374.72;435433;1254;140938;-72
2023/07/22 22:54:40;;;;;;;13.90;11.00;;;;;;;12.22;64.24;99381.65;435407;1256;140569;-73
2023/07/22 23:04:46;;;;;;;17.30;11.30;;;;;;;12.08;64.71;99384.27;435535;1256;140388;-73
2023/07/22 23:14:52;;;;;;;11.20;9.60;;;;;;;11.98;65.25;99383.55;435965;1254;139485;-73
2023/07/22 23:24:59;;;;;;;11.50;10.10;;;;;;;11.87;65.80;99383.13;435712;1256;140868;-74
2023/07/22 23:35:05;;;;;;;10.40;9.30;;;;;;;11.72;66.30;99391.90;435447;1256;141144;-74
2023/07/22 23:45:11;;;;;;;9.60;8.50;;;;;;;11.60;66.80;99391.02;435657;1254;140298;-74
2023/07/22 23:55:17;;;;;;;8.70;7.00;;;;;;;11.54;67.39;99385.34;435357;1254;139199;-73
